Time;durP1;ratioP1;P1;durP2;ratioP2;P2;SDS_P1;SDS_P2;PMS_P1;PMS_P2;Temp;Humidity;BMP_temperature;BMP_pressure;BME280_temperature;BME280_humidity;BME280_pressure;Samples;Min_cycle;Max_cycle;Signal;HPM_P1;HPM_P2
2021/04/12 00:01:18;;;;;;;4.63;2.55;;;;;;;5.95;52.92;102201.50;4950963;28;124588;-72
2021/04/12 00:03:59;;;;;;;5.93;2.60;;;;;;;5.95;52.86;102205.81;4951589;28;123843;-72
2021/04/12 00:06:35;;;;;;;5.35;2.63;;;;;;;5.93;52.86;102208.44;4966641;28;106786;-72
2021/04/12 00:09:18;;;;;;;5.18;3.05;;;;;;;5.92;52.93;102204.09;4952199;28;107400;-72
2021/04/12 00:12:11;;;;;;;10.38;3.00;;;;;;;5.90;53.02;102205.84;4951157;28;124066;-72
2021/04/12 00:14:49;;;;;;;6.95;2.70;;;;;;;5.88;52.99;102207.63;4947120;28;124574;-71
2021/04/12 00:17:19;;;;;;;6.00;2.90;;;;;;;5.88;52.87;102205.00;4951995;28;106740;-72
2021/04/12 00:19:52;;;;;;;5.57;3.00;;;;;;;5.84;53.35;102214.63;4952588;28;107922;-71
2021/04/12 00:22:28;;;;;;;5.38;2.80;;;;;;;5.83;53.21;102212.00;4951032;28;123882;-72
2021/04/12 00:24:57;;;;;;;;;;;;;;;5.80;53.06;102205.03;4953191;28;123239;-72
2021/04/12 00:27:38;;;;;;;5.20;2.85;;;;;;;5.78;53.14;102208.50;4942056;28;107558;-72
2021/04/12 00:30:17;;;;;;;5.47;2.97;;;;;;;5.74;53.19;102212.03;4953273;28;107701;-72
2021/04/12 00:32:57;;;;;;;6.53;3.40;;;;;;;5.71;53.22;102218.19;4952349;28;123775;-72
2021/04/12 00:35:40;;;;;;;6.43;3.15;;;;;;;5.68;53.17;102218.19;4950180;28;124962;-71
2021/04/12 00:38:13;;;;;;;8.50;3.38;;;;;;;5.65;53.42;102221.69;4949315;28;107918;-71
2021/04/12 00:41:11;;;;;;;4.80;2.72;;;;;;;5.64;53.16;102221.69;4950483;28;106963;-72
2021/04/12 00:43:57;;;;;;;8.27;3.33;;;;;;;5.61;53.43;102225.22;4952904;28;126421;-72
2021/04/12 00:46:34;;;;;;;4.95;3.10;;;;;;;5.59;53.40;102237.47;4944569;28;123936;-72
2021/04/12 00:49:28;;;;;;;10.20;3.60;;;;;;;5.58;53.49;102227.84;4949587;28;106713;-72
2021/04/12 00:52:02;;;;;;;6.05;3.25;;;;;;;5.58;53.40;102238.34;4943908;28;106276;-72
2021/04/12 00:54:52;;;;;;;5.63;3.50;;;;;;;5.55;53.65;102227.84;4949780;28;122964;-72
2021/04/12 00:57:48;;;;;;;7.57;3.55;;;;;;;5.53;53.58;102229.59;4935528;28;123265;-72
2021/04/12 01:00:15;;;;;;;8.95;3.35;;;;;;;5.54;53.75;102236.63;4949416;28;107007;-72
2021/04/12 01:03:00;;;;;;;7.18;3.58;;;;;;;5.49;53.38;102233.13;4950258;28;106618;-71
2021/04/12 01:06:00;;;;;;;8.75;3.58;;;;;;;5.47;53.66;102232.25;4950763;28;124015;-72
2021/04/12 01:08:39;;;;;;;7.50;3.05;;;;;;;5.45;53.67;102236.63;4951353;28;123149;-71
2021/04/12 01:11:39;;;;;;;5.85;3.67;;;;;;;5.42;53.56;102236.63;4949717;28;109346;-72
2021/04/12 01:14:43;;;;;;;7.45;3.75;;;;;;;5.38;53.83;102234.88;4949381;28;109231;-72
2021/04/12 01:17:28;;;;;;;11.02;4.13;;;;;;;5.36;53.80;102236.63;4950840;28;124290;-72
2021/04/12 01:19:58;;;;;;;12.43;3.90;;;;;;;5.33;53.72;102236.63;4951042;28;123899;-72
2021/04/12 01:22:44;;;;;;;7.43;3.72;;;;;;;5.30;53.91;102236.66;4951508;28;110138;-71
2021/04/12 01:25:17;;;;;;;8.82;4.13;;;;;;;5.28;53.69;102243.66;4951663;28;110218;-72
2021/04/12 01:27:49;;;;;;;13.70;4.15;;;;;;;5.25;54.11;102250.66;4948654;28;124754;-71
2021/04/12 01:30:35;;;;;;;8.48;3.88;;;;;;;5.26;53.94;102251.53;4953744;28;125101;-72
2021/04/12 01:33:18;;;;;;;8.00;3.83;;;;;;;5.23;54.01;102252.38;4951525;28;109086;-72
2021/04/12 01:36:20;;;;;;;7.93;4.18;;;;;;;5.20;54.11;102257.66;4955391;28;108788;-72
2021/04/12 01:39:08;;;;;;;8.98;3.90;;;;;;;5.19;53.91;102261.16;4954116;28;123938;-72
2021/04/12 01:42:08;;;;;;;8.30;4.45;;;;;;;5.15;54.21;102259.41;4953200;28;124785;-72
2021/04/12 01:44:49;;;;;;;9.50;3.72;;;;;;;5.16;54.15;102265.53;4947894;28;109243;-72
2021/04/12 01:47:27;;;;;;;7.88;3.83;;;;;;;5.15;54.38;102274.28;4974142;28;108323;-72
2021/04/12 01:50:13;;;;;;;8.65;3.88;;;;;;;5.13;54.37;102258.53;4952239;28;123869;-72
2021/04/12 01:53:08;;;;;;;6.95;4.30;;;;;;;5.14;54.35;102265.56;4952071;28;122984;-72
2021/04/12 01:55:54;;;;;;;9.02;4.43;;;;;;;5.15;54.22;102264.66;4949903;28;110214;-71
2021/04/12 01:58:50;;;;;;;7.83;4.73;;;;;;;5.13;54.39;102266.41;4951962;28;108749;-72
2021/04/12 02:01:41;;;;;;;11.20;4.28;;;;;;;5.11;54.21;102267.28;4952310;28;124508;-72
2021/04/12 02:04:36;;;;;;;9.02;4.55;;;;;;;5.10;54.58;102266.41;4934518;28;123022;-72
2021/04/12 02:07:09;;;;;;;8.77;4.55;;;;;;;5.09;54.58;102269.03;4950607;28;109487;-72
2021/04/12 02:09:45;;;;;;;10.13;4.40;;;;;;;5.07;54.68;102275.16;4953340;28;109763;-72
2021/04/12 02:12:31;;;;;;;14.93;4.13;;;;;;;5.06;54.47;102272.53;4945061;28;123229;-72
2021/04/12 02:15:13;;;;;;;10.00;4.57;;;;;;;5.05;54.60;102278.66;4953969;28;123831;-72
2021/04/12 02:17:48;;;;;;;6.63;4.22;;;;;;;5.03;54.84;102286.53;4949015;28;110359;-72
2021/04/12 02:20:24;;;;;;;10.57;4.10;;;;;;;5.01;54.83;102282.13;4952014;28;109840;-71
2021/04/12 02:23:02;;;;;;;7.90;4.45;;;;;;;5.01;54.56;102288.28;4949302;28;123878;-72
2021/04/12 02:25:38;;;;;;;7.55;4.22;;;;;;;5.00;54.65;102290.91;4949616;28;123968;-72
2021/04/12 02:28:25;;;;;;;9.82;4.32;;;;;;;4.98;54.54;102292.66;4947945;28;109378;-74
2021/04/12 02:31:08;;;;;;;8.85;4.53;;;;;;;4.96;54.87;102295.28;4953144;28;109181;-72
2021/04/12 02:33:41;;;;;;;10.13;4.30;;;;;;;4.97;54.58;102304.00;4947471;28;124061;-72
2021/04/12 02:36:20;;;;;;;6.65;4.18;;;;;;;4.95;54.77;102300.50;4949722;28;124254;-72
2021/04/12 02:39:03;;;;;;;9.88;4.13;;;;;;;4.93;54.86;102305.75;4950677;28;109317;-72
2021/04/12 02:41:44;;;;;;;8.98;4.95;;;;;;;4.92;54.80;102300.53;4952210;28;108275;-72
2021/04/12 02:44:34;;;;;;;8.75;4.72;;;;;;;4.91;54.84;102307.50;4951790;28;124334;-71
2021/04/12 02:47:16;;;;;;;8.63;4.60;;;;;;;4.90;54.81;102310.13;4948350;28;124824;-72
2021/04/12 02:50:00;;;;;;;10.20;4.65;;;;;;;4.87;54.75;102306.63;4950164;28;108498;-71
2021/04/12 02:53:05;;;;;;;8.97;3.93;;;;;;;4.86;55.04;102309.28;4951885;28;109127;-71
2021/04/12 02:56:04;;;;;;;8.15;4.53;;;;;;;4.83;54.89;102304.88;4950235;28;123237;-72
2021/04/12 02:59:03;;;;;;;9.35;4.97;;;;;;;4.81;54.89;102311.88;4951632;28;124137;-72
2021/04/12 03:01:55;;;;;;;9.32;4.57;;;;;;;4.78;54.96;102319.72;4951514;28;109794;-71
2021/04/12 03:05:00;;;;;;;9.15;4.57;;;;;;;4.76;55.03;102310.97;4944480;28;107504;-71
2021/04/12 03:07:50;;;;;;;11.32;5.07;;;;;;;4.74;54.92;102315.34;4950152;28;124079;-72
2021/04/12 03:10:32;;;;;;;10.85;4.72;;;;;;;4.71;55.29;102310.09;4980910;28;123038;-72
2021/04/12 03:13:25;;;;;;;13.80;4.85;;;;;;;4.70;55.15;102324.06;4952466;28;110367;-72
2021/04/12 03:16:20;;;;;;;10.40;5.03;;;;;;;4.68;55.18;102326.69;4952341;28;109246;-72
2021/04/12 03:19:17;;;;;;;9.35;5.20;;;;;;;4.65;55.31;102321.47;4934735;28;123222;-72
2021/04/12 03:22:32;;;;;;;8.77;5.43;;;;;;;4.64;55.32;102334.56;4949592;28;124248;-72
2021/04/12 03:24:58;;;;;;;9.82;5.38;;;;;;;4.64;55.17;102331.94;4918954;28;108831;-72
2021/04/12 03:27:48;;;;;;;8.80;5.57;;;;;;;4.64;55.52;102331.94;4952137;28;108237;-72
2021/04/12 03:30:17;;;;;;;10.93;5.57;;;;;;;4.64;55.39;102329.31;4951767;28;124943;-72
2021/04/12 03:32:54;;;;;;;10.85;6.22;;;;;;;4.65;55.58;102320.56;4951657;28;124590;-72
2021/04/12 03:35:32;;;;;;;12.45;5.97;;;;;;;4.66;55.54;102327.56;4949272;28;109434;-71
2021/04/12 03:38:11;;;;;;;9.30;6.90;;;;;;;4.70;55.72;102331.09;4967814;22;109818;-76
2021/04/12 03:40:52;;;;;;;10.82;5.00;;;;;;;4.69;55.60;102338.09;4909445;28;123043;-77
2021/04/12 03:43:59;;;;;;;8.10;5.32;;;;;;;4.69;55.78;102338.09;4912002;28;121614;-75
2021/04/12 03:47:02;;;;;;;9.98;5.25;;;;;;;4.67;55.57;102345.06;4910856;28;108424;-75
2021/04/12 03:50:22;;;;;;;10.18;5.60;;;;;;;4.68;55.58;102346.81;4893688;28;108945;-75
2021/04/12 03:53:13;;;;;;;11.52;5.38;;;;;;;4.68;55.77;102346.81;4867781;28;124797;-75
2021/04/12 03:56:18;;;;;;;8.80;5.82;;;;;;;4.68;55.87;102352.06;4881196;28;126976;-75
2021/04/12 03:58:56;;;;;;;9.57;4.88;;;;;;;4.66;55.89;102351.19;4901738;28;109353;-75
2021/04/12 04:01:22;;;;;;;7.97;5.15;;;;;;;4.68;55.70;102358.19;4908502;28;107820;-76
2021/04/12 04:04:13;;;;;;;11.95;4.90;;;;;;;4.68;55.87;102366.06;4909935;28;122729;-76
2021/04/12 04:06:46;;;;;;;8.80;5.68;;;;;;;4.70;55.95;102366.06;4897115;28;124208;-76
2021/04/12 04:09:31;;;;;;;9.15;5.38;;;;;;;4.71;56.06;102374.81;4905189;28;108472;-76
2021/04/12 04:12:35;;;;;;;8.02;5.20;;;;;;;4.72;55.85;102369.56;4904345;28;110690;-78
2021/04/12 04:15:15;;;;;;;9.82;5.18;;;;;;;4.73;55.82;102373.97;4893037;28;123585;-76
2021/04/12 04:18:22;;;;;;;10.00;5.40;;;;;;;4.72;56.05;102374.81;4907308;28;123072;-77
2021/04/12 04:20:49;;;;;;;8.95;5.47;;;;;;;4.73;55.90;102375.69;4918586;28;108639;-77
2021/04/12 04:23:25;;;;;;;8.52;4.80;;;;;;;4.73;55.79;102376.59;4906201;28;109718;-77
2021/04/12 04:26:16;;;;;;;7.78;5.18;;;;;;;4.71;55.96;102383.59;4906939;28;123275;-75
2021/04/12 04:29:01;;;;;;;11.13;5.35;;;;;;;4.72;55.83;102385.31;4897955;28;124613;-75
2021/04/12 04:31:40;;;;;;;9.60;5.28;;;;;;;4.69;55.78;102385.31;4899196;28;106973;-75
2021/04/12 04:34:49;;;;;;;10.85;4.95;;;;;;;4.66;55.92;102380.91;4899260;28;108638;-76
2021/04/12 04:37:28;;;;;;;10.63;5.10;;;;;;;4.66;55.73;102380.06;4898912;28;122915;-76
2021/04/12 04:40:08;;;;;;;8.25;5.05;;;;;;;4.62;55.81;102373.91;4881199;28;123670;-76
2021/04/12 04:43:05;;;;;;;10.00;5.13;;;;;;;4.61;56.04;102376.53;4890870;28;109861;-76
2021/04/12 04:46:10;;;;;;;8.70;5.20;;;;;;;4.59;56.04;102383.50;4892721;28;109268;-76
2021/04/12 04:48:45;;;;;;;7.95;5.18;;;;;;;4.56;56.19;102384.38;4891131;28;123542;-76
2021/04/12 04:51:32;;;;;;;12.73;5.25;;;;;;;4.57;56.07;102380.00;4892029;28;123694;-77
2021/04/12 04:54:33;;;;;;;8.75;5.20;;;;;;;4.58;56.18;102387.03;4894162;28;109459;-78
2021/04/12 04:57:13;;;;;;;10.85;5.63;;;;;;;4.58;56.30;102387.91;4894091;28;109039;-76
2021/04/12 05:00:05;;;;;;;8.60;5.22;;;;;;;4.60;56.52;102387.91;4891969;28;124767;-77
2021/04/12 05:03:00;;;;;;;12.07;5.47;;;;;;;4.61;56.33;102392.28;4897568;28;123513;-76
2021/04/12 05:05:49;;;;;;;11.15;5.65;;;;;;;4.62;56.44;102394.03;4912465;28;109482;-76
2021/04/12 05:08:31;;;;;;;9.52;5.35;;;;;;;4.64;56.47;102397.53;4910874;28;108372;-76
2021/04/12 05:11:04;;;;;;;9.60;5.72;;;;;;;4.67;56.62;102402.78;4898056;28;124373;-75
2021/04/12 05:14:00;;;;;;;9.73;5.88;;;;;;;4.69;56.59;102411.56;4900895;28;124063;-75
2021/04/12 05:16:51;;;;;;;7.95;5.68;;;;;;;4.71;56.51;102412.44;4896796;28;109119;-75
2021/04/12 05:19:34;;;;;;;10.77;6.30;;;;;;;4.73;56.62;102408.09;4897683;28;109171;-75
2021/04/12 05:22:38;;;;;;;9.90;5.82;;;;;;;4.76;56.43;102423.81;4896796;28;124200;-75
2021/04/12 05:25:29;;;;;;;8.80;5.55;;;;;;;4.78;56.28;102416.84;4897040;28;122350;-76
2021/04/12 05:28:27;;;;;;;11.52;6.13;;;;;;;4.79;56.59;102421.22;4893782;28;109412;-75
2021/04/12 05:31:15;;;;;;;10.77;5.65;;;;;;;4.81;56.78;102427.34;4887414;28;108688;-75
2021/04/12 05:34:20;;;;;;;13.00;6.22;;;;;;;4.86;56.63;102425.63;4897603;28;123855;-77
2021/04/12 05:37:05;;;;;;;12.25;6.68;;;;;;;4.91;56.99;102427.41;4859057;28;123522;-77
2021/04/12 05:39:37;;;;;;;14.43;7.25;;;;;;;4.95;57.04;102426.53;4856599;28;107964;-76
2021/04/12 05:42:16;;;;;;;10.60;7.10;;;;;;;4.99;57.07;102436.16;4878800;28;108472;-77
2021/04/12 05:45:09;;;;;;;11.75;7.32;;;;;;;5.03;57.10;102432.72;4892689;28;124714;-77
2021/04/12 05:48:12;;;;;;;13.15;7.10;;;;;;;5.05;57.12;102430.97;4892818;28;123934;-77
2021/04/12 05:50:55;;;;;;;10.77;7.07;;;;;;;5.08;57.30;102436.22;4897031;28;108864;-76
2021/04/12 05:53:46;;;;;;;11.60;7.55;;;;;;;5.11;57.00;102440.63;4896822;28;107357;-77
2021/04/12 05:56:45;;;;;;;14.18;7.70;;;;;;;5.14;57.12;102441.50;4897634;28;124159;-76
2021/04/12 05:59:34;;;;;;;9.13;7.30;;;;;;;5.17;57.27;102446.75;4878304;28;123192;-77
2021/04/12 06:02:12;;;;;;;15.05;7.82;;;;;;;5.19;56.97;102450.25;4896537;28;110611;-76
2021/04/12 06:05:04;;;;;;;13.98;7.53;;;;;;;5.22;57.15;102449.41;4898671;28;109838;-77
2021/04/12 06:07:30;;;;;;;13.35;7.90;;;;;;;5.24;57.02;102453.78;4904260;28;124525;-75
2021/04/12 06:10:24;;;;;;;11.23;8.27;;;;;;;5.26;57.15;102461.69;4898825;28;123980;-76
2021/04/12 06:13:05;;;;;;;12.68;8.00;;;;;;;5.30;57.28;102457.31;4904309;28;109308;-75
2021/04/12 06:16:11;;;;;;;10.25;7.45;;;;;;;5.32;57.00;102466.06;4899273;28;109212;-76
2021/04/12 06:19:10;;;;;;;13.65;8.13;;;;;;;5.35;57.08;102466.06;4893557;28;124285;-75
2021/04/12 06:21:55;;;;;;;13.88;7.40;;;;;;;5.37;57.23;102469.56;4889696;28;123249;-75
2021/04/12 06:24:52;;;;;;;9.15;6.43;;;;;;;5.39;57.06;102465.22;4907064;28;108413;-76
2021/04/12 06:27:49;;;;;;;10.57;6.47;;;;;;;5.42;57.23;102473.09;4882414;28;108820;-75
2021/04/12 06:30:33;;;;;;;;;;;;;;;5.44;56.68;102481.84;4878383;28;123113;-75
2021/04/12 06:33:38;;;;;;;9.23;5.72;;;;;;;5.48;56.99;102483.59;4885833;28;122101;-75
2021/04/12 06:36:17;;;;;;;10.52;5.65;;;;;;;5.56;57.34;102481.91;4889071;28;109423;-76
2021/04/12 06:39:09;;;;;;;12.10;5.90;;;;;;;5.66;57.91;102494.16;4889515;28;109230;-77
2021/04/12 06:42:27;;;;;;;6.80;5.30;;;;;;;5.83;57.81;102495.97;4892823;28;123999;-76
2021/04/12 06:45:31;;;;;;;9.52;5.38;;;;;;;6.00;57.90;102499.50;4878858;28;123435;-75
2021/04/12 06:48:41;;;;;;;8.38;4.80;;;;;;;6.14;57.51;102501.25;4894175;28;109246;-76
2021/04/12 06:51:14;;;;;;;8.45;4.90;;;;;;;6.23;57.39;102503.91;4895749;28;109066;-76
2021/04/12 06:53:50;;;;;;;7.68;4.70;;;;;;;6.32;57.44;102503.91;4885281;28;123665;-76
2021/04/12 07:08:54;;;;;;;8.40;4.82;;;;;;;7.62;58.15;102517.53;5109197;27;96803;-75
2021/04/12 07:11:39;;;;;;;6.05;4.13;;;;;;;7.90;57.53;102523.53;5089794;27;107378;-75
2021/04/12 07:14:34;;;;;;;6.45;3.92;;;;;;;8.11;57.26;102526.91;5095683;27;123300;-75
2021/04/12 07:17:49;;;;;;;6.63;3.90;;;;;;;8.30;57.12;102527.63;5098036;27;124422;-75
2021/04/12 07:20:31;;;;;;;8.40;4.00;;;;;;;8.45;56.68;102531.94;5093205;27;107753;-75
2021/04/12 07:23:37;;;;;;;7.05;3.90;;;;;;;8.55;56.70;102531.84;5091991;27;107645;-76
2021/04/12 07:26:34;;;;;;;10.02;3.50;;;;;;;8.67;56.16;102528.19;5092689;27;123757;-75
2021/04/12 07:29:42;;;;;;;5.97;3.60;;;;;;;8.81;56.57;102540.38;5082578;27;122897;-75
2021/04/12 07:32:42;;;;;;;10.13;3.47;;;;;;;8.96;56.23;102529.66;5073581;27;107182;-75
2021/04/12 07:35:18;;;;;;;6.85;3.08;;;;;;;9.08;56.12;102542.75;5092239;27;107056;-75
2021/04/12 07:38:00;;;;;;;;;;;;;;;9.18;56.05;102534.69;5074856;27;123475;-75
2021/04/12 07:41:00;;;;;;;6.85;3.63;;;;;;;9.30;55.67;102539.81;5088740;27;125294;-75
2021/04/12 07:44:04;;;;;;;6.70;3.22;;;;;;;9.42;55.71;102539.69;5088671;27;107495;-75
2021/04/12 07:46:58;;;;;;;5.85;3.10;;;;;;;9.55;55.33;102546.56;5092108;27;108829;-75
2021/04/12 07:50:02;;;;;;;6.90;2.95;;;;;;;9.69;55.20;102537.56;5090105;27;124337;-75
2021/04/12 07:53:13;;;;;;;6.07;3.13;;;;;;;9.80;55.42;102545.34;5091565;27;124837;-76
2021/04/12 07:55:43;;;;;;;4.65;3.00;;;;;;;9.93;55.17;102547.78;5089676;27;107192;-75
2021/04/12 07:58:52;;;;;;;6.03;3.10;;;;;;;10.04;54.95;102541.44;5091581;27;107577;-75
2021/04/12 08:01:37;;;;;;;4.05;2.38;;;;;;;10.20;54.47;102550.91;5090922;27;123131;-76
2021/04/12 08:04:30;;;;;;;6.20;2.50;;;;;;;10.30;54.54;102547.25;5091407;27;123433;-75
2021/04/12 08:07:18;;;;;;;6.88;2.47;;;;;;;10.37;53.81;102549.78;5080564;27;107199;-76
2021/04/12 08:10:24;;;;;;;4.95;2.08;;;;;;;10.37;53.21;102552.44;5040849;27;107648;-76
2021/04/12 08:12:53;;;;;;;6.70;2.60;;;;;;;10.29;52.80;102550.75;5072752;27;123023;-76
2021/04/12 08:15:58;;;;;;;9.45;2.15;;;;;;;10.24;52.62;102559.66;5078492;27;123625;-76
2021/04/12 08:18:29;;;;;;;4.97;2.40;;;;;;;10.19;52.68;102565.06;5072259;27;107591;-75
2021/04/12 08:21:30;;;;;;;2.90;1.88;;;;;;;10.13;52.17;102573.06;5040753;27;107384;-76
2021/04/12 08:24:24;;;;;;;6.00;2.58;;;;;;;10.08;52.30;102577.59;5079020;27;123753;-76
2021/04/12 08:27:23;;;;;;;6.05;2.45;;;;;;;10.00;52.07;102574.16;5069270;27;122278;-76
2021/04/12 08:30:18;;;;;;;5.47;2.58;;;;;;;9.89;51.84;102583.13;5100158;27;107160;-76
2021/04/12 08:33:07;;;;;;;5.05;2.53;;;;;;;9.74;51.82;102593.94;5077971;27;109616;-76
2021/04/12 08:36:30;;;;;;;6.40;2.10;;;;;;;9.60;51.84;102590.59;5072206;27;126070;-75
2021/04/12 08:39:20;;;;;;;5.07;1.92;;;;;;;9.56;51.99;102589.75;5072258;27;123734;-76
2021/04/12 08:41:59;;;;;;;4.88;1.80;;;;;;;9.60;52.11;102601.16;5023971;27;117023;-75
2021/04/12 08:45:00;;;;;;;5.63;1.80;;;;;;;9.64;52.38;102597.59;5027647;28;107120;-75
2021/04/12 08:47:57;;;;;;;5.13;1.83;;;;;;;9.68;52.21;102601.94;5023731;27;123440;-75
2021/04/12 08:50:50;;;;;;;4.63;1.90;;;;;;;9.74;52.51;102604.53;5027494;27;123091;-74
2021/04/12 08:53:35;;;;;;;4.05;1.85;;;;;;;9.79;52.23;102600.03;5028547;27;107235;-73
2021/04/12 08:56:26;;;;;;;5.30;1.95;;;;;;;9.88;52.32;102597.25;5024114;27;105479;-74
2021/04/12 08:58:58;;;;;;;3.15;2.00;;;;;;;10.03;52.49;102595.28;5023361;28;124106;-76
2021/04/12 09:01:50;;;;;;;2.50;1.50;;;;;;;10.18;52.47;102589.78;5006784;28;123028;-75
2021/04/12 09:05:05;;;;;;;5.13;1.50;;;;;;;10.37;52.17;102594.81;5028370;27;107391;-76
2021/04/12 09:07:48;;;;;;;2.55;1.30;;;;;;;10.49;51.41;102605.19;5008811;27;108995;-76
2021/04/12 09:10:45;;;;;;;3.53;1.90;;;;;;;10.50;51.17;102617.56;5013306;28;124038;-75
2021/04/12 09:13:36;;;;;;;6.53;1.83;;;;;;;10.35;50.85;102631.91;5026964;28;123134;-76
2021/04/12 09:16:15;;;;;;;4.00;2.10;;;;;;;10.12;50.98;102626.94;5016304;28;107351;-76
2021/04/12 09:19:01;;;;;;;5.80;2.20;;;;;;;9.91;51.09;102634.28;5039557;27;106312;-76
2021/04/12 09:21:47;;;;;;;;;;;;;;;9.78;51.24;102643.28;5040381;27;124345;-75
2021/04/12 09:24:38;;;;;;;3.33;1.90;;;;;;;9.60;51.12;102654.06;5031692;28;123931;-75
2021/04/12 09:27:29;;;;;;;4.78;1.75;;;;;;;9.38;51.30;102664.00;5031964;28;106399;-74
2021/04/12 09:30:18;;;;;;;4.63;1.80;;;;;;;9.21;51.50;102656.25;5028876;28;108228;-73
2021/04/12 09:33:15;;;;;;;3.67;2.00;;;;;;;9.04;51.44;102670.53;5019975;28;123981;-73
2021/04/12 09:36:00;;;;;;;3.80;1.80;;;;;;;8.89;51.79;102670.63;5020903;27;123799;-73
2021/04/12 09:38:53;;;;;;;2.95;1.90;;;;;;;8.75;52.02;102662.84;5035392;27;107109;-73
2021/04/12 09:41:24;;;;;;;3.97;1.98;;;;;;;8.65;52.31;102662.03;5010887;23;107510;-67
2021/04/12 09:44:23;;;;;;;2.97;1.90;;;;;;;8.56;52.68;102659.47;4933652;28;123224;-67
2021/04/12 09:48:25;;;;;;;3.65;1.90;;;;;;;8.46;53.14;102657.78;5013781;28;96760;-71
2021/04/12 09:51:13;;;;;;;5.75;1.98;;;;;;;8.46;53.15;102655.16;5002668;28;107273;-74
2021/04/12 09:54:05;;;;;;;3.78;1.98;;;;;;;8.50;53.77;102651.59;5007683;28;123882;-72
2021/04/12 09:57:05;;;;;;;3.30;1.70;;;;;;;8.54;53.43;102650.69;5000545;28;122836;-71
2021/04/12 10:00:03;;;;;;;3.75;1.88;;;;;;;8.58;53.78;102655.03;5002306;28;107577;-71
2021/04/12 10:02:54;;;;;;;3.75;1.95;;;;;;;8.67;54.35;102652.34;4993691;28;107999;-71
2021/04/12 10:05:59;;;;;;;4.43;1.98;;;;;;;8.83;54.15;102644.28;4997333;28;124663;-71
2021/04/12 10:09:00;;;;;;;4.30;1.90;;;;;;;9.01;53.99;102644.13;4992150;28;124039;-71
2021/04/12 10:11:47;;;;;;;4.50;1.70;;;;;;;9.21;54.02;102646.56;4987665;28;106919;-71
2021/04/12 10:14:23;;;;;;;2.53;1.60;;;;;;;9.41;53.67;102649.00;4993449;28;107049;-71
2021/04/12 10:17:02;;;;;;;5.13;1.83;;;;;;;9.60;53.74;102654.94;4996795;28;123742;-71
2021/04/12 10:19:44;;;;;;;3.33;1.90;;;;;;;9.74;53.24;102646.84;4998601;28;124572;-71
2021/04/12 10:22:19;;;;;;;4.85;1.63;;;;;;;9.87;53.12;102653.75;5002360;28;107116;-72
2021/04/12 10:24:54;;;;;;;3.58;1.60;;;;;;;10.03;52.75;102664.13;5005052;28;107283;-71
2021/04/12 10:27:47;;;;;;;3.05;1.67;;;;;;;10.14;52.47;102651.63;4995288;28;124208;-71
2021/04/12 10:30:53;;;;;;;4.45;1.73;;;;;;;10.26;52.72;102645.25;5004407;28;124627;-71
2021/04/12 10:33:29;;;;;;;2.88;1.88;;;;;;;10.40;52.79;102658.34;5003092;28;106936;-71
2021/04/12 10:36:01;;;;;;;3.13;1.65;;;;;;;10.51;52.03;102657.28;5004314;28;107065;-71
2021/04/12 10:38:35;;;;;;;2.65;1.73;;;;;;;10.65;51.63;102654.41;5003471;28;124341;-71
2021/04/12 10:41:22;;;;;;;4.45;1.83;;;;;;;10.77;51.21;102652.44;5002907;28;124010;-71
2021/04/12 10:44:28;;;;;;;3.25;2.03;;;;;;;10.80;50.69;102647.97;5010772;28;107018;-71
2021/04/12 10:47:17;;;;;;;2.60;1.70;;;;;;;10.83;50.39;102649.69;4992004;28;107758;-71
2021/04/12 10:50:05;;;;;;;3.78;2.15;;;;;;;10.90;50.85;102643.38;4994351;28;123548;-71
2021/04/12 10:52:41;;;;;;;3.80;1.88;;;;;;;11.00;50.50;102644.97;5001052;28;122932;-71
2021/04/12 10:55:22;;;;;;;3.85;2.00;;;;;;;10.99;50.34;102653.81;4991935;28;106628;-71
2021/04/12 10:58:13;;;;;;;3.50;2.40;;;;;;;10.92;49.62;102652.19;4984789;28;107683;-71
2021/04/12 11:00:48;;;;;;;5.53;2.58;;;;;;;10.89;49.94;102654.91;4980960;28;124475;-71
2021/04/12 11:03:49;;;;;;;3.83;2.33;;;;;;;10.87;49.86;102648.75;4980185;28;124349;-71
2021/04/12 11:06:35;;;;;;;4.22;2.42;;;;;;;10.88;50.43;102655.78;4983545;28;107551;-71
2021/04/12 11:09:14;;;;;;;5.78;2.60;;;;;;;10.88;50.06;102661.09;4981469;28;108004;-71
2021/04/12 11:12:05;;;;;;;4.25;2.70;;;;;;;10.91;50.36;102658.41;4991060;28;124682;-71
2021/04/12 11:14:46;;;;;;;3.50;2.38;;;;;;;10.94;50.08;102650.38;4983346;28;123176;-71
2021/04/12 11:17:44;;;;;;;4.22;2.70;;;;;;;10.99;50.37;102658.25;4979485;28;106976;-71
2021/04/12 11:20:27;;;;;;;5.85;2.88;;;;;;;11.12;50.93;102653.63;4983597;28;107007;-70
2021/04/12 11:23:01;;;;;;;3.75;2.35;;;;;;;11.26;50.33;102651.56;4978013;28;124982;-71
2021/04/12 11:25:46;;;;;;;3.28;2.20;;;;;;;11.34;49.94;102660.28;4978649;28;125187;-71
2021/04/12 11:28:36;;;;;;;3.75;2.47;;;;;;;11.42;49.89;102653.03;4981751;28;106906;-71
2021/04/12 11:31:42;;;;;;;4.75;2.40;;;;;;;11.48;49.58;102658.22;4988447;28;107447;-71
2021/04/12 11:34:21;;;;;;;4.45;3.00;;;;;;;11.54;49.45;102666.97;4980854;28;126420;-71
2021/04/12 11:37:16;;;;;;;3.97;3.13;;;;;;;11.55;49.21;102664.28;4989208;28;123304;-71
2021/04/12 11:40:20;;;;;;;5.05;4.10;;;;;;;11.55;48.99;102669.59;4982033;28;107560;-71
2021/04/12 11:42:57;;;;;;;4.88;3.90;;;;;;;11.54;48.76;102677.56;4988503;28;107124;-71
2021/04/12 11:45:35;;;;;;;4.72;4.03;;;;;;;11.52;48.22;102684.69;4988639;28;124071;-70
2021/04/12 11:48:12;;;;;;;5.22;3.45;;;;;;;11.43;48.24;102676.03;4993195;28;124668;-71
2021/04/12 11:50:53;;;;;;;4.05;3.50;;;;;;;11.39;47.94;102678.75;4976719;28;106584;-71
2021/04/12 11:53:54;;;;;;;3.03;2.72;;;;;;;11.34;47.98;102681.50;4976976;28;107976;-73
2021/04/12 11:56:45;;;;;;;3.22;2.63;;;;;;;11.34;47.98;102676.19;4974741;28;124422;-71
2021/04/12 11:59:44;;;;;;;2.90;2.42;;;;;;;11.40;48.52;102676.06;4989120;28;123338;-72
2021/04/12 12:02:41;;;;;;;3.55;2.00;;;;;;;11.52;48.71;102680.25;4982503;28;107833;-70
2021/04/12 12:05:17;;;;;;;2.38;1.70;;;;;;;11.60;48.07;102683.66;4984918;28;107631;-71
2021/04/12 12:07:55;;;;;;;2.88;1.42;;;;;;;11.63;47.48;102672.97;4993336;28;124319;-72
2021/04/12 12:10:36;;;;;;;3.00;1.50;;;;;;;11.61;47.22;102687.19;4993055;28;123745;-72
2021/04/12 12:13:21;;;;;;;2.80;1.55;;;;;;;11.62;46.66;102691.56;4950777;27;106456;-72
2021/04/12 12:16:12;;;;;;;2.22;1.30;;;;;;;11.56;46.55;102700.50;4948075;28;107283;-72
2021/04/12 12:18:48;;;;;;;1.83;1.20;;;;;;;11.55;47.10;102689.97;4948731;28;124272;-72
2021/04/12 12:21:24;;;;;;;1.90;1.20;;;;;;;11.57;46.74;102685.50;4949731;28;124760;-71
2021/04/12 12:24:09;;;;;;;2.90;1.25;;;;;;;11.55;46.51;102700.56;4955675;28;106818;-71
2021/04/12 12:27:01;;;;;;;3.33;1.20;;;;;;;11.57;46.26;102698.75;4953452;28;107477;-71
2021/04/12 12:29:40;;;;;;;1.83;1.30;;;;;;;11.63;46.24;102698.63;4945161;28;122922;-71
2021/04/12 12:32:12;;;;;;;2.95;1.25;;;;;;;11.63;45.53;102701.28;4952996;28;124668;-72
2021/04/12 12:34:58;;;;;;;2.95;1.30;;;;;;;11.63;45.79;102699.50;4946091;28;107609;-72
2021/04/12 12:37:33;;;;;;;2.50;1.38;;;;;;;11.72;45.65;102703.75;4942219;28;107248;-72
2021/04/12 12:40:10;;;;;;;2.40;1.30;;;;;;;11.82;45.24;102705.31;4940654;28;123933;-72
2021/04/12 12:42:41;;;;;;;2.65;1.20;;;;;;;11.88;45.06;102710.53;4939479;28;124216;-71
2021/04/12 12:45:28;;;;;;;3.30;1.10;;;;;;;11.91;44.26;102695.47;4948324;28;107741;-72
2021/04/12 12:47:58;;;;;;;1.77;1.05;;;;;;;11.86;43.16;102704.34;4945816;28;106666;-71
2021/04/12 12:50:31;;;;;;;2.22;1.20;;;;;;;11.76;43.04;102709.88;4922698;28;123654;-72
2021/04/12 12:53:07;;;;;;;2.60;1.30;;;;;;;11.73;44.01;102710.81;4941367;28;122043;-72
2021/04/12 12:55:39;;;;;;;3.33;1.20;;;;;;;11.76;43.46;102710.75;4955700;28;107051;-71
2021/04/12 12:58:16;;;;;;;2.95;1.30;;;;;;;11.80;43.60;102704.47;4936772;28;107355;-72
2021/04/12 13:00:49;;;;;;;3.50;1.20;;;;;;;11.87;43.17;102703.44;4941484;28;123741;-71
2021/04/12 13:03:18;;;;;;;3.05;1.20;;;;;;;11.91;42.75;102711.41;4939325;28;123617;-71
2021/04/12 13:05:49;;;;;;;3.97;1.23;;;;;;;11.91;42.33;102698.13;4947175;28;107474;-72
2021/04/12 13:08:22;;;;;;;2.92;1.40;;;;;;;11.97;42.92;102704.16;4945086;28;107226;-70